Time;durP1;ratioP1;P1;durP2;ratioP2;P2;SDS_P1;SDS_P2;PMS_P1;PMS_P2;Temp;Humidity;BMP_temperature;BMP_pressure;BME280_temperature;BME280_humidity;BME280_pressure;Samples;Min_cycle;Max_cycle;Signal;HPM_P1;HPM_P2
2022/01/14 00:00:10;;;;;;;31.43;16.63;;;-0.60;95.60;;;;;;6246118;22;20176;-84
2022/01/14 00:02:38;;;;;;;31.40;17.73;;;-0.70;95.40;;;;;;6246146;22;20205;-87
2022/01/14 00:05:06;;;;;;;33.30;17.80;;;-0.70;95.40;;;;;;6247003;22;20177;-84
2022/01/14 00:07:33;;;;;;;34.37;18.23;;;-0.80;95.60;;;;;;6246455;22;20197;-85
2022/01/14 00:10:01;;;;;;;33.47;18.07;;;-0.90;95.90;;;;;;6247661;22;20529;-83
2022/01/14 00:12:36;;;;;;;36.97;19.00;;;-1.00;96.10;;;;;;6246866;22;20220;-83
2022/01/14 00:15:23;;;;;;;40.47;21.27;;;-1.10;96.40;;;;;;6247237;22;20169;-86
2022/01/14 00:17:52;;;;;;;37.63;19.87;;;-1.10;96.60;;;;;;6246208;22;20208;-83
2022/01/14 00:20:19;;;;;;;44.13;22.50;;;-1.00;96.60;;;;;;6246853;22;20268;-82
2022/01/14 00:22:46;;;;;;;38.03;20.07;;;-1.00;96.40;;;;;;6246438;22;20225;-83
2022/01/14 00:33:28;;;;;;;45.37;23.00;;;-0.80;95.80;;;;;;6247088;22;20274;-83
2022/01/14 00:35:58;;;;;;;52.13;24.27;;;-0.80;95.80;;;;;;6246623;22;20165;-84
2022/01/14 00:38:25;;;;;;;49.33;24.10;;;-0.80;95.70;;;;;;6245951;22;20197;-87
2022/01/14 00:40:52;;;;;;;46.93;23.33;;;-0.80;95.70;;;;;;6247942;22;20176;-89
2022/01/14 00:43:19;;;;;;;48.33;24.83;;;-0.80;95.80;;;;;;6246369;22;20836;-82
2022/01/14 00:45:47;;;;;;;45.73;23.77;;;-0.90;95.60;;;;;;6245751;22;20176;-83
2022/01/14 00:48:14;;;;;;;46.93;24.17;;;-0.90;95.60;;;;;;6246324;22;20657;-82
2022/01/14 00:50:44;;;;;;;50.97;24.10;;;-0.90;95.60;;;;;;6246698;22;20169;-85
2022/01/14 00:53:12;;;;;;;47.37;23.50;;;-0.90;95.50;;;;;;6246831;22;20250;-85
2022/01/14 00:55:48;;;;;;;45.17;23.63;;;-1.00;95.50;;;;;;6246876;22;20171;-86
2022/01/14 01:00:59;;;;;;;47.33;23.77;;;-1.10;95.80;;;;;;6247666;23;20165;-82
2022/01/14 01:03:28;;;;;;;48.97;24.00;;;-1.20;95.90;;;;;;6246727;22;20629;-83
2022/01/14 01:05:56;;;;;;;46.80;23.03;;;-1.30;96.30;;;;;;6247942;22;20166;-82
2022/01/14 01:08:26;;;;;;;43.70;22.43;;;-1.30;96.40;;;;;;6247078;22;20197;-84
2022/01/14 01:10:53;;;;;;;46.17;23.60;;;-1.30;96.40;;;;;;6246835;22;20887;-83
2022/01/14 01:13:24;;;;;;;45.10;23.13;;;-1.30;96.40;;;;;;6247999;22;20516;-82
2022/01/14 01:15:51;;;;;;;49.17;23.17;;;-1.20;96.20;;;;;;6247969;22;20189;-82
2022/01/14 01:18:19;;;;;;;51.83;24.23;;;-1.20;96.00;;;;;;6249871;22;20300;-86
2022/01/14 01:20:46;;;;;;;46.43;23.67;;;-1.20;96.00;;;;;;6251108;22;20231;-87
2022/01/14 01:23:15;;;;;;;46.93;24.03;;;-1.20;96.00;;;;;;6249512;22;20209;-84
2022/01/14 01:25:46;;;;;;;50.37;24.50;;;-1.20;96.00;;;;;;6246192;22;20172;-84
2022/01/14 01:28:13;;;;;;;47.30;23.43;;;-1.20;95.80;;;;;;6246418;22;20254;-85
2022/01/14 01:31:05;;;;;;;46.77;23.50;;;-1.20;96.00;;;;;;6247677;22;20166;-84
2022/01/14 01:33:33;;;;;;;50.77;23.60;;;-1.30;96.00;;;;;;6246586;22;20201;-84
2022/01/14 01:36:00;;;;;;;45.60;22.97;;;-1.30;96.20;;;;;;6248322;22;20245;-83
2022/01/14 01:38:30;;;;;;;46.77;22.43;;;-1.40;96.30;;;;;;6253054;22;20249;-84
2022/01/14 01:40:57;;;;;;;38.13;20.43;;;-1.50;96.40;;;;;;6262047;22;20196;-85
2022/01/14 01:43:26;;;;;;;46.97;23.90;;;-1.60;96.30;;;;;;6248096;22;20215;-84
2022/01/14 01:45:54;;;;;;;43.20;20.87;;;-1.70;96.70;;;;;;6246718;22;20169;-83
2022/01/14 01:48:21;;;;;;;36.97;18.73;;;-1.80;97.00;;;;;;6246885;22;20523;-85
2022/01/14 01:50:49;;;;;;;40.47;19.50;;;-1.70;97.40;;;;;;6247043;22;20165;-83
2022/01/14 01:53:16;;;;;;;35.07;19.17;;;-1.50;97.10;;;;;;6245836;22;20213;-86
2022/01/14 01:55:45;;;;;;;39.83;19.07;;;-1.40;96.40;;;;;;6246962;22;20177;-83
2022/01/14 01:58:12;;;;;;;37.07;19.23;;;-1.40;96.30;;;;;;6229119;22;20287;-83
2022/01/14 02:00:39;;;;;;;35.67;18.80;;;-1.40;96.20;;;;;;6243018;23;20176;-83
2022/01/14 02:03:08;;;;;;;37.47;19.00;;;-1.50;96.20;;;;;;6246676;22;20205;-85
2022/01/14 02:05:35;;;;;;;32.47;18.27;;;-1.50;96.70;;;;;;6246128;22;20205;-83
2022/01/14 02:08:02;;;;;;;38.77;19.50;;;-1.40;96.50;;;;;;6245919;22;20700;-83
2022/01/14 02:10:29;;;;;;;37.73;18.67;;;-1.30;96.30;;;;;;6246352;22;20248;-82
2022/01/14 02:12:58;;;;;;;32.53;18.17;;;-1.20;95.90;;;;;;6245725;22;20201;-84
2022/01/14 02:15:44;;;;;;;36.50;18.87;;;-1.10;95.80;;;;;;6244996;22;20183;-83
2022/01/14 02:23:51;;;;;;;32.97;17.70;;;-1.30;95.60;;;;;;6244201;23;20204;-82
2022/01/14 02:26:19;;;;;;;32.60;17.73;;;-1.30;95.90;;;;;;6244233;22;20158;-83
2022/01/14 02:28:47;;;;;;;34.60;18.40;;;-1.30;96.00;;;;;;6243251;22;20220;-82
2022/01/14 02:31:15;;;;;;;30.60;16.33;;;-1.30;95.60;;;;;;6244577;22;20248;-83
2022/01/14 02:33:42;;;;;;;33.63;17.93;;;-1.40;95.80;;;;;;6242412;22;20211;-83
2022/01/14 02:36:11;;;;;;;33.93;18.17;;;-1.50;95.90;;;;;;6242588;23;20173;-84
2022/01/14 02:38:39;;;;;;;37.93;19.33;;;-1.50;95.90;;;;;;6243878;22;20197;-83
2022/01/14 02:41:06;;;;;;;33.63;16.93;;;-1.50;95.90;;;;;;6244022;22;20173;-82
2022/01/14 02:43:34;;;;;;;33.77;19.37;;;-1.40;95.90;;;;;;6244239;22;20201;-84
2022/01/14 02:46:04;;;;;;;34.23;17.67;;;-1.40;95.80;;;;;;6244181;22;20177;-82
2022/01/14 02:48:45;;;;;;;38.20;18.40;;;-1.40;95.70;;;;;;6243017;22;20204;-82
2022/01/14 02:51:16;;;;;;;33.50;18.10;;;-1.40;95.60;;;;;;6243294;23;20157;-83
2022/01/14 02:53:55;;;;;;;37.43;19.00;;;-1.50;95.80;;;;;;6243813;22;20209;-82
2022/01/14 02:56:25;;;;;;;34.83;18.73;;;-1.60;95.90;;;;;;6249707;22;20207;-83
2022/01/14 02:58:52;;;;;;;31.00;17.83;;;-1.70;96.30;;;;;;6250066;22;20180;-82
2022/01/14 03:01:22;;;;;;;33.70;17.23;;;-1.60;96.60;;;;;;6251580;22;20632;-83
2022/01/14 03:03:54;;;;;;;34.87;18.47;;;-1.50;96.60;;;;;;6251824;22;20215;-81
2022/01/14 03:06:23;;;;;;;35.43;18.13;;;-1.40;96.40;;;;;;6252542;22;20242;-81
2022/01/14 03:08:50;;;;;;;31.67;17.33;;;-1.30;96.10;;;;;;6252846;22;20181;-83
2022/01/14 03:11:24;;;;;;;30.50;17.60;;;-1.20;95.80;;;;;;6253503;22;20681;-82
2022/01/14 03:13:51;;;;;;;41.47;17.93;;;-1.20;95.60;;;;;;6254234;22;20211;-84
2022/01/14 03:16:20;;;;;;;33.17;17.80;;;-1.10;95.50;;;;;;6253481;22;20272;-81
2022/01/14 03:18:51;;;;;;;33.23;17.50;;;-1.10;95.40;;;;;;6245028;22;20197;-82
2022/01/14 03:21:26;;;;;;;33.77;17.87;;;-1.20;95.30;;;;;;6254571;22;20195;-82
2022/01/14 03:24:14;;;;;;;34.90;17.70;;;-1.20;95.50;;;;;;6254568;22;20215;-82
2022/01/14 03:26:41;;;;;;;38.70;19.60;;;-1.40;95.40;;;;;;6252157;22;20239;-84
2022/01/14 03:29:08;;;;;;;36.37;18.17;;;-1.50;95.80;;;;;;6250834;22;20157;-84
2022/01/14 03:31:36;;;;;;;34.83;19.00;;;-1.50;96.10;;;;;;6250955;22;20200;-84
2022/01/14 03:34:03;;;;;;;37.50;18.13;;;-1.40;96.20;;;;;;6252189;22;20205;-82
2022/01/14 03:36:30;;;;;;;39.80;19.13;;;-1.50;95.90;;;;;;6253146;22;20208;-82
2022/01/14 03:38:58;;;;;;;36.27;19.10;;;-1.50;96.10;;;;;;6251956;22;20673;-82
2022/01/14 03:41:25;;;;;;;36.47;18.30;;;-1.40;96.10;;;;;;6249524;22;20260;-84
2022/01/14 03:43:53;;;;;;;36.27;18.63;;;-1.40;95.90;;;;;;6250628;22;20659;-82
2022/01/14 03:46:20;;;;;;;36.93;19.07;;;-1.40;95.90;;;;;;6251725;22;20251;-82
2022/01/14 03:48:46;;;;;;;37.37;18.60;;;-1.40;95.70;;;;;;6251833;22;20231;-84
2022/01/14 03:51:13;;;;;;;38.40;18.67;;;-1.30;95.60;;;;;;6251426;22;20165;-82
2022/01/14 03:53:40;;;;;;;34.60;18.47;;;-1.30;95.70;;;;;;6249831;22;20271;-83
2022/01/14 03:56:09;;;;;;;38.37;18.97;;;-1.40;95.50;;;;;;6252388;22;20248;-89
2022/01/14 03:58:36;;;;;;;35.77;18.13;;;-1.50;95.90;;;;;;6251973;22;20252;-82
2022/01/14 04:01:06;;;;;;;33.53;17.40;;;-1.40;95.90;;;;;;6252252;22;20169;-81
2022/01/14 04:03:33;;;;;;;33.07;18.97;;;-1.40;95.60;;;;;;6251842;22;20201;-86
2022/01/14 04:06:00;;;;;;;34.33;18.07;;;-1.40;95.60;;;;;;6265650;22;20220;-83
2022/01/14 04:08:27;;;;;;;37.07;19.40;;;-1.40;95.30;;;;;;6259065;22;20229;-82
2022/01/14 04:10:56;;;;;;;35.97;18.73;;;-1.50;95.30;;;;;;6247941;22;20170;-83
2022/01/14 04:13:37;;;;;;;32.07;17.07;;;-1.50;95.30;;;;;;6247286;22;20196;-84
2022/01/14 04:16:04;;;;;;;36.30;18.33;;;-1.50;95.40;;;;;;6247967;22;20195;-83
2022/01/14 04:18:31;;;;;;;34.10;17.37;;;-1.60;95.60;;;;;;6246571;22;20521;-84
2022/01/14 04:20:58;;;;;;;37.33;19.37;;;-1.70;95.90;;;;;;6247469;22;20165;-83
2022/01/14 04:23:25;;;;;;;37.77;18.97;;;-1.60;96.00;;;;;;6246817;22;20553;-84
2022/01/14 04:25:55;;;;;;;39.17;19.40;;;-1.70;95.90;;;;;;6245706;22;20165;-83
2022/01/14 04:28:25;;;;;;;33.93;18.67;;;-1.70;96.10;;;;;;6245070;22;20664;-88
2022/01/14 04:30:54;;;;;;;37.37;19.33;;;-1.60;96.00;;;;;;6246181;22;20165;-83
2022/01/14 04:33:22;;;;;;;43.67;21.63;;;-1.70;95.70;;;;;;6245348;22;20575;-83
2022/01/14 04:35:49;;;;;;;48.97;23.17;;;-1.60;95.70;;;;;;6246264;22;20174;-83
2022/01/14 04:38:17;;;;;;;42.87;20.80;;;-1.60;95.60;;;;;;6244732;22;20217;-82
2022/01/14 04:40:44;;;;;;;47.07;21.63;;;-1.80;95.70;;;;;;6245675;22;20175;-83
2022/01/14 04:43:13;;;;;;;47.87;23.00;;;-1.80;96.00;;;;;;6245670;22;20200;-86
2022/01/14 04:45:53;;;;;;;44.47;23.13;;;-1.70;96.30;;;;;;6245687;22;20207;-82
2022/01/14 04:48:21;;;;;;;38.40;19.90;;;-1.70;95.80;;;;;;6246193;22;20247;-83
2022/01/14 04:50:48;;;;;;;41.80;21.00;;;-1.80;95.90;;;;;;6246360;22;20183;-83
2022/01/14 04:53:15;;;;;;;34.83;19.17;;;-1.70;96.00;;;;;;6245989;22;20197;-84
2022/01/14 04:55:42;;;;;;;37.20;18.67;;;-1.60;95.80;;;;;;6246033;22;20224;-82
2022/01/14 04:58:09;;;;;;;36.27;19.57;;;-1.60;95.50;;;;;;6245767;22;20192;-84
2022/01/14 05:00:38;;;;;;;34.50;18.87;;;-1.60;95.30;;;;;;6246422;22;20187;-88
2022/01/14 05:03:07;;;;;;;35.17;18.33;;;-1.60;95.20;;;;;;6245715;22;20197;-83
2022/01/14 05:05:38;;;;;;;37.37;20.00;;;-1.60;94.90;;;;;;6246107;22;20277;-82
2022/01/14 05:08:09;;;;;;;35.03;18.70;;;-1.70;95.10;;;;;;6246486;22;20703;-83
2022/01/14 05:10:49;;;;;;;35.23;18.57;;;-1.80;95.20;;;;;;6246471;22;20164;-82
2022/01/14 05:13:16;;;;;;;39.10;18.97;;;-1.90;95.50;;;;;;6246803;22;20246;-82
2022/01/14 05:15:44;;;;;;;32.40;17.47;;;-1.90;95.70;;;;;;6245697;22;20257;-81
2022/01/14 05:18:13;;;;;;;38.70;17.87;;;-1.80;95.60;;;;;;6246114;22;20195;-82
2022/01/14 05:20:40;;;;;;;36.23;18.57;;;-1.80;95.70;;;;;;6244778;22;20253;-82
2022/01/14 05:23:07;;;;;;;36.97;18.77;;;-1.80;95.40;;;;;;6245274;22;20203;-82
2022/01/14 05:25:34;;;;;;;37.97;19.37;;;-1.70;95.30;;;;;;6244895;22;20199;-83
2022/01/14 05:28:04;;;;;;;35.47;18.43;;;-1.70;95.20;;;;;;6245155;22;20193;-83
2022/01/14 05:30:31;;;;;;;35.03;18.30;;;-1.70;95.20;;;;;;6246085;22;20177;-82
2022/01/14 05:32:58;;;;;;;37.27;19.17;;;-1.80;95.30;;;;;;6246956;22;20201;-82
2022/01/14 05:35:29;;;;;;;33.30;18.20;;;-1.80;95.40;;;;;;6248947;22;20203;-82
2022/01/14 05:37:56;;;;;;;34.53;18.17;;;-1.80;95.30;;;;;;6247577;22;20551;-83
2022/01/14 05:40:25;;;;;;;34.17;18.30;;;-1.90;95.50;;;;;;6250611;22;20204;-83
2022/01/14 05:42:53;;;;;;;40.90;20.07;;;-1.90;95.60;;;;;;6250750;22;20212;-84
2022/01/14 05:45:20;;;;;;;32.47;17.43;;;-1.90;95.60;;;;;;6251022;22;20253;-82
2022/01/14 05:47:47;;;;;;;40.83;19.23;;;-2.00;95.90;;;;;;6250325;22;20200;-83
2022/01/14 05:50:16;;;;;;;35.17;18.23;;;-2.00;96.20;;;;;;6252305;22;20165;-82
2022/01/14 05:52:45;;;;;;;34.80;17.93;;;-2.00;96.20;;;;;;6252898;22;20280;-83
2022/01/14 05:55:15;;;;;;;36.77;18.23;;;-2.10;96.20;;;;;;6251242;22;20277;-82
2022/01/14 05:57:43;;;;;;;31.87;17.83;;;-2.10;96.50;;;;;;6249176;22;20197;-86
2022/01/14 06:00:13;;;;;;;36.03;17.33;;;-2.10;96.60;;;;;;6247529;22;20175;-90
2022/01/14 06:02:40;;;;;;;32.73;17.83;;;-2.00;96.80;;;;;;6246882;22;20196;-86
2022/01/14 06:05:08;;;;;;;36.30;18.43;;;-1.90;96.50;;;;;;6250325;22;20496;-84
2022/01/14 06:07:35;;;;;;;35.77;17.97;;;-1.80;96.30;;;;;;6250224;22;20201;-82
2022/01/14 06:10:04;;;;;;;30.43;16.53;;;-1.90;96.20;;;;;;6249787;22;20228;-83
2022/01/14 06:12:31;;;;;;;29.60;16.57;;;-1.80;96.30;;;;;;6247647;22;20260;-81
2022/01/14 06:14:58;;;;;;;32.60;17.23;;;-1.80;96.30;;;;;;6248039;22;20260;-84
2022/01/14 06:17:25;;;;;;;33.37;17.17;;;-1.60;96.20;;;;;;6249371;22;20299;-81
2022/01/14 06:19:52;;;;;;;32.70;17.00;;;-1.70;95.90;;;;;;6250383;22;20200;-83
2022/01/14 06:22:19;;;;;;;28.00;15.83;;;-1.70;96.10;;;;;;6249670;22;20232;-85
2022/01/14 06:24:46;;;;;;;32.27;17.07;;;-1.60;96.10;;;;;;6250980;22;20204;-87
2022/01/14 06:27:14;;;;;;;30.87;16.53;;;-1.60;95.80;;;;;;6251533;22;20652;-81
2022/01/14 06:29:42;;;;;;;31.57;17.10;;;-1.40;96.30;;;;;;6253973;22;20248;-88
2022/01/14 06:32:10;;;;;;;28.30;15.93;;;-1.20;96.60;;;;;;6266300;22;20496;-83
2022/01/14 06:34:37;;;;;;;29.07;16.40;;;-1.10;96.00;;;;;;6251356;22;20169;-82
2022/01/14 06:37:16;;;;;;;30.27;15.80;;;-1.10;95.40;;;;;;6248534;22;20264;-82
2022/01/14 06:39:44;;;;;;;31.43;16.90;;;-1.10;95.50;;;;;;6249995;22;20179;-81
2022/01/14 06:42:11;;;;;;;32.57;15.93;;;-1.10;95.60;;;;;;6248970;22;20284;-81
2022/01/14 06:44:39;;;;;;;30.20;16.20;;;-1.20;95.50;;;;;;6248839;22;20196;-83
2022/01/14 06:47:06;;;;;;;30.30;16.27;;;-1.20;95.60;;;;;;6248484;22;20276;-83
2022/01/14 06:49:33;;;;;;;28.67;16.30;;;-1.20;95.60;;;;;;6248770;22;20172;-82
2022/01/14 06:52:00;;;;;;;30.73;16.10;;;-1.20;95.70;;;;;;6249507;22;20280;-81
2022/01/14 06:54:27;;;;;;;28.30;15.77;;;-1.20;95.40;;;;;;6249975;22;20621;-81
2022/01/14 06:56:54;;;;;;;32.23;15.67;;;-1.20;95.50;;;;;;6250686;22;20196;-81
2022/01/14 06:59:21;;;;;;;26.20;15.00;;;-1.10;95.60;;;;;;6249625;22;20252;-81
2022/01/14 07:01:50;;;;;;;28.10;15.53;;;-1.20;95.70;;;;;;6248078;22;20287;-80
2022/01/14 07:04:18;;;;;;;26.70;15.43;;;-1.20;96.30;;;;;;6249405;22;20245;-81
2022/01/14 07:06:45;;;;;;;27.90;15.27;;;-1.20;96.00;;;;;;6248603;22;20246;-81
2022/01/14 07:09:12;;;;;;;28.70;14.90;;;-1.30;95.90;;;;;;6249565;22;20241;-81
2022/01/14 07:12:21;;;;;;;25.50;14.80;;;-1.30;95.80;;;;;;6255670;22;20189;-81
2022/01/14 07:14:48;;;;;;;28.77;13.93;;;-1.30;96.20;;;;;;6250335;23;20256;-82
2022/01/14 07:20:14;;;;;;;22.13;13.30;;;-1.20;95.70;;;;;;6289736;22;20214;-83
2022/01/14 07:22:44;;;;;;;26.30;13.83;;;-1.10;95.50;;;;;;6246750;22;20716;-83
2022/01/14 07:25:11;;;;;;;23.57;13.67;;;-1.10;95.30;;;;;;6248165;22;20189;-83
2022/01/14 07:27:38;;;;;;;25.60;13.87;;;-1.00;95.20;;;;;;6246695;22;20513;-83
2022/01/14 07:33:36;;;;;;;23.10;13.20;;;-1.10;95.20;;;;;;6248882;23;20204;-81
2022/01/14 07:36:25;;;;;;;22.50;12.47;;;-1.10;95.80;;;;;;6249338;23;20538;-81
2022/01/14 07:38:53;;;;;;;24.13;13.07;;;-0.90;95.70;;;;;;6247562;23;20280;-81
2022/01/14 07:41:24;;;;;;;24.93;12.83;;;-0.90;95.40;;;;;;6248685;23;20228;-81
2022/01/14 07:43:51;;;;;;;26.60;12.70;;;-0.90;95.40;;;;;;6240016;23;20268;-84
2022/01/14 07:46:18;;;;;;;24.40;14.13;;;-0.80;96.00;;;;;;6248150;23;20735;-82
2022/01/14 07:48:45;;;;;;;22.63;12.87;;;-0.80;95.60;;;;;;6246854;23;20193;-84
2022/01/14 07:51:13;;;;;;;25.07;13.73;;;-0.70;95.80;;;;;;6247584;23;20640;-81
2022/01/14 07:53:41;;;;;;;22.37;12.07;;;-0.60;95.50;;;;;;6248247;23;20220;-81
2022/01/14 07:59:32;;;;;;;29.83;17.87;;;-0.40;95.70;;;;;;6248747;23;20136;-81
2022/01/14 08:02:00;;;;;;;22.80;12.97;;;-0.30;95.20;;;;;;6249080;23;20197;-81
2022/01/14 08:04:28;;;;;;;22.00;12.63;;;-0.20;95.10;;;;;;6248041;23;20260;-81
2022/01/14 08:06:58;;;;;;;22.87;12.73;;;-0.10;95.10;;;;;;6246495;23;20201;-81
2022/01/14 08:09:26;;;;;;;20.03;12.23;;;0.10;95.50;;;;;;6248126;23;20265;-81
2022/01/14 08:11:53;;;;;;;17.33;10.60;;;0.50;94.10;;;;;;6244940;22;20876;-79
2022/01/14 08:14:20;;;;;;;19.97;11.53;;;0.70;94.20;;;;;;6247026;23;20168;-81
2022/01/14 08:16:47;;;;;;;17.57;10.73;;;0.90;93.60;;;;;;6248488;22;20215;-84
2022/01/14 08:19:14;;;;;;;19.43;11.17;;;1.00;93.10;;;;;;6250461;23;20222;-81
2022/01/14 08:21:41;;;;;;;18.17;10.53;;;1.10;92.50;;;;;;6251109;23;20181;-84
2022/01/14 08:24:07;;;;;;;19.37;11.33;;;1.20;92.10;;;;;;6253397;23;20169;-85
2022/01/14 08:26:36;;;;;;;31.47;11.20;;;1.30;92.90;;;;;;6243904;23;20640;-85
2022/01/14 08:29:03;;;;;;;16.77;9.43;;;1.50;93.00;;;;;;6244989;23;20676;-87
2022/01/14 08:31:30;;;;;;;16.97;9.83;;;1.70;92.80;;;;;;6245646;23;20169;-82
2022/01/14 08:33:58;;;;;;;15.63;8.70;;;1.80;91.50;;;;;;6245899;23;20165;-82
2022/01/14 08:36:27;;;;;;;15.73;9.13;;;1.80;91.30;;;;;;6249666;23;20165;-81
2022/01/14 08:39:03;;;;;;;12.17;8.63;;;1.90;90.70;;;;;;6250836;23;20240;-83
2022/01/14 08:41:30;;;;;;;14.17;8.87;;;2.00;90.70;;;;;;6250999;23;20231;-84
2022/01/14 08:44:00;;;;;;;19.50;9.30;;;2.00;90.20;;;;;;6250104;23;20173;-81
2022/01/14 08:46:27;;;;;;;13.40;9.33;;;2.10;90.80;;;;;;6250671;23;20193;-82
2022/01/14 08:48:58;;;;;;;16.93;8.90;;;2.10;90.50;;;;;;6248299;23;20199;-81
2022/01/14 08:51:27;;;;;;;15.10;8.60;;;2.50;90.80;;;;;;6249908;23;20158;-82
2022/01/14 08:53:53;;;;;;;13.23;8.47;;;3.20;89.60;;;;;;6249330;23;20154;-82
2022/01/14 08:56:20;;;;;;;14.30;8.13;;;3.90;83.60;;;;;;6249222;23;20252;-84
2022/01/14 08:58:47;;;;;;;15.10;8.10;;;4.50;78.90;;;;;;6248205;22;20275;-84
2022/01/14 09:20:35;;;;;;;12.18;7.57;;;9.90;35.10;;;;;;6273542;22;20197;-85
2022/01/14 09:23:03;;;;;;;10.07;7.60;;;10.00;34.10;;;;;;6250907;22;20248;-86
2022/01/14 09:29:16;;;;;;;9.82;7.80;;;10.20;33.60;;;;;;6248055;22;20228;-84
2022/01/14 09:42:41;;;;;;;15.45;7.78;;;11.90;24.70;;;;;;6253540;22;20660;-86
2022/01/14 09:45:17;;;;;;;9.15;7.63;;;12.40;25.60;;;;;;6249497;23;20185;-84
2022/01/14 09:47:47;;;;;;;9.00;7.55;;;13.10;22.70;;;;;;6248388;23;20196;-84
2022/01/14 09:50:27;;;;;;;8.00;7.20;;;13.10;22.50;;;;;;6251983;23;20185;-84
2022/01/14 09:53:19;;;;;;;8.10;7.18;;;12.20;23.00;;;;;;6250671;23;20228;-84
2022/01/14 09:55:46;;;;;;;9.70;7.47;;;12.60;25.80;;;;;;6250802;23;20161;-84
2022/01/14 09:58:13;;;;;;;10.88;7.78;;;13.60;22.10;;;;;;6247768;22;20261;-84
2022/01/14 10:00:41;;;;;;;9.23;7.20;;;13.80;21.60;;;;;;6251033;23;20610;-85
2022/01/14 10:03:20;;;;;;;9.65;7.20;;;13.80;21.40;;;;;;6252381;23;20185;-83
2022/01/14 10:05:51;;;;;;;8.93;6.97;;;14.10;21.60;;;;;;6255394;23;20177;-84
2022/01/14 10:08:21;;;;;;;9.80;7.68;;;13.90;21.30;;;;;;6254590;23;20275;-84
2022/01/14 10:13:35;;;;;;;10.15;7.57;;;12.60;21.60;;;;;;6236856;22;20205;-85
2022/01/14 10:16:07;;;;;;;10.65;7.95;;;11.60;25.00;;;;;;6254651;22;20280;-86
2022/01/14 10:18:35;;;;;;;8.77;7.35;;;10.30;24.80;;;;;;6256198;22;20252;-86
2022/01/14 10:21:06;;;;;;;13.35;7.35;;;9.60;32.70;;;;;;6252055;23;20248;-86
2022/01/14 10:23:41;;;;;;;8.85;7.55;;;9.60;31.20;;;;;;6255272;22;20165;-86
2022/01/14 10:26:08;;;;;;;8.75;7.43;;;9.50;30.90;;;;;;6255596;23;20220;-85
2022/01/14 10:28:35;;;;;;;10.18;7.28;;;9.40;32.50;;;;;;6255180;22;20235;-86
2022/01/14 10:31:51;;;;;;;11.48;7.22;;;9.50;32.10;;;;;;6256920;23;20236;-86
2022/01/14 10:34:21;;;;;;;8.70;6.97;;;9.90;30.80;;;;;;6257903;22;20188;-85
2022/01/14 10:36:50;;;;;;;9.07;7.18;;;9.80;31.80;;;;;;6258168;22;20276;-86
2022/01/14 10:39:47;;;;;;;8.05;6.45;;;10.10;28.00;;;;;;6257720;23;20175;-86
2022/01/14 10:42:26;;;;;;;8.57;7.07;;;10.40;28.10;;;;;;6258748;22;20257;-86
2022/01/14 10:44:55;;;;;;;8.35;6.43;;;10.00;26.80;;;;;;6254862;23;20189;-86
2022/01/14 10:47:26;;;;;;;9.38;7.38;;;9.80;29.30;;;;;;6256414;22;20221;-86
2022/01/14 10:49:58;;;;;;;12.23;6.80;;;10.30;28.20;;;;;;6255593;23;20237;-85
2022/01/14 10:52:50;;;;;;;8.38;6.72;;;10.40;26.80;;;;;;6257511;22;20196;-86
2022/01/14 11:05:42;;;;;;;8.27;6.38;;;12.40;25.70;;;;;;6255773;23;20189;-83
2022/01/14 11:08:10;;;;;;;10.55;7.18;;;12.70;22.90;;;;;;6256473;22;20544;-83
2022/01/14 11:10:38;;;;;;;10.25;7.15;;;11.90;25.20;;;;;;6256846;23;20177;-83
2022/01/14 11:13:07;;;;;;;9.60;7.15;;;12.40;24.00;;;;;;6255480;22;20260;-83
2022/01/14 11:42:17;;;;;;;10.18;6.32;;;7.70;35.90;;;;;;6251891;22;20201;-85
2022/01/14 11:44:52;;;;;;;8.68;6.07;;;7.50;36.40;;;;;;6252967;23;20161;-86
2022/01/14 11:47:49;;;;;;;9.93;6.28;;;7.30;36.90;;;;;;6253031;22;20192;-86
2022/01/14 11:50:46;;;;;;;13.32;6.43;;;7.10;37.50;;;;;;6251436;23;20274;-85
2022/01/14 11:53:51;;;;;;;9.50;6.05;;;7.20;38.00;;;;;;6250262;23;20576;-85
2022/01/14 11:56:52;;;;;;;9.18;5.80;;;7.20;37.90;;;;;;6223637;23;20176;-86
2022/01/14 11:59:43;;;;;;;9.48;5.95;;;7.30;38.30;;;;;;6128263;23;20174;-85
2022/01/14 12:02:53;;;;;;;11.00;5.88;;;7.30;39.10;;;;;;6125999;23;20275;-86
2022/01/14 12:05:22;;;;;;;10.60;6.15;;;7.30;37.30;;;;;;6237485;23;20201;-86
2022/01/14 12:08:27;;;;;;;7.78;5.85;;;7.30;38.30;;;;;;6247995;23;20235;-85
2022/01/14 12:11:20;;;;;;;9.93;6.10;;;7.30;38.50;;;;;;6250808;23;20203;-84
2022/01/14 12:13:54;;;;;;;9.73;6.57;;;7.40;39.00;;;;;;6251199;23;20669;-85
2022/01/14 12:16:45;;;;;;;8.68;6.03;;;7.60;38.80;;;;;;6251060;22;20224;-87
2022/01/14 12:19:17;;;;;;;14.30;6.63;;;7.60;38.20;;;;;;6250863;23;20199;-85
2022/01/14 12:22:01;;;;;;;8.95;6.40;;;7.60;38.40;;;;;;6250965;22;20160;-84
2022/01/14 12:24:36;;;;;;;10.82;6.70;;;7.60;39.60;;;;;;6253737;23;20193;-84
2022/01/14 12:38:14;;;;;;;10.15;5.50;;;7.80;38.80;;;;;;6217603;22;20164;-85
2022/01/14 12:47:45;;;;;;;9.18;5.78;;;8.10;37.10;;;;;;6217818;22;20224;-84
2022/01/14 12:53:37;;;;;;;10.52;5.20;;;8.20;35.20;;;;;;6219799;23;20200;-84
2022/01/14 12:56:27;;;;;;;9.15;5.13;;;8.20;35.80;;;;;;6219670;23;20484;-84
2022/01/14 13:02:31;;;;;;;10.23;4.88;;;8.30;36.60;;;;;;6256844;22;20177;-85
2022/01/14 13:05:03;;;;;;;11.30;4.43;;;8.30;35.80;;;;;;6250390;23;20169;-85
2022/01/14 13:07:30;;;;;;;7.13;4.63;;;8.30;35.90;;;;;;6255543;22;20193;-85
2022/01/14 13:42:47;;;;;;;3.58;2.65;;;8.60;38.60;;;;;;6266351;22;20254;-85
2022/01/14 13:45:26;;;;;;;6.13;2.83;;;8.70;39.70;;;;;;6250277;23;20593;-89
2022/01/14 13:51:20;;;;;;;6.68;2.10;;;8.80;40.50;;;;;;6250866;23;20188;-85
2022/01/14 13:53:49;;;;;;;3.97;2.47;;;8.70;41.50;;;;;;6251442;22;20177;-85
2022/01/14 13:56:32;;;;;;;5.43;2.60;;;8.60;44.00;;;;;;6226947;23;20166;-85
2022/01/14 13:59:01;;;;;;;4.93;2.63;;;8.50;44.50;;;;;;6246810;23;20482;-85
2022/01/14 14:01:30;;;;;;;4.53;2.60;;;8.50;46.00;;;;;;6226789;23;20211;-84
2022/01/14 14:04:02;;;;;;;4.95;2.20;;;8.40;47.00;;;;;;6254151;23;20162;-85
2022/01/14 14:06:34;;;;;;;4.78;2.30;;;8.40;47.00;;;;;;6252252;22;20193;-85
2022/01/14 14:09:06;;;;;;;4.88;2.85;;;8.50;48.70;;;;;;6254032;23;20165;-84
2022/01/14 14:12:03;;;;;;;5.47;2.58;;;8.50;47.10;;;;;;6252675;23;20158;-85
2022/01/14 14:28:27;;;;;;;2.70;2.38;;;8.60;47.20;;;;;;6255187;22;20172;-87
2022/01/14 14:31:03;;;;;;;4.15;2.70;;;8.50;47.20;;;;;;6252385;23;20161;-87
2022/01/14 14:33:32;;;;;;;4.22;2.20;;;8.40;49.40;;;;;;6252122;22;20324;-85
2022/01/14 14:35:59;;;;;;;4.13;2.35;;;8.30;52.30;;;;;;6251103;23;20209;-85
2022/01/14 14:38:28;;;;;;;4.75;2.53;;;8.20;54.60;;;;;;6250525;22;20169;-84
2022/01/14 14:41:04;;;;;;;3.28;2.30;;;8.20;55.70;;;;;;6251115;23;20199;-87
2022/01/14 14:43:30;;;;;;;3.15;2.80;;;8.00;56.00;;;;;;6248879;23;20554;-87
2022/01/14 14:45:57;;;;;;;3.20;2.47;;;7.90;57.10;;;;;;6249458;23;20231;-84
2022/01/14 14:48:26;;;;;;;4.20;2.20;;;7.80;57.60;;;;;;6250462;23;20272;-84
2022/01/14 14:50:53;;;;;;;2.80;2.28;;;7.80;58.30;;;;;;6251958;23;20170;-83
2022/01/14 14:53:20;;;;;;;2.88;2.60;;;7.70;59.10;;;;;;6247824;23;20267;-85
2022/01/14 14:55:47;;;;;;;3.45;2.15;;;7.70;60.30;;;;;;6249005;23;20169;-85
2022/01/14 14:58:15;;;;;;;7.15;3.03;;;7.60;60.80;;;;;;6250530;23;20220;-91
2022/01/14 15:01:10;;;;;;;4.07;2.60;;;7.50;60.50;;;;;;6254261;23;20188;-87
2022/01/14 15:03:41;;;;;;;4.15;2.45;;;7.50;63.10;;;;;;6253177;22;20660;-89
2022/01/14 15:06:11;;;;;;;6.63;2.28;;;7.40;64.90;;;;;;6249101;23;20200;-85
2022/01/14 15:08:39;;;;;;;4.72;2.10;;;7.40;65.70;;;;;;6247286;22;20254;-84
2022/01/14 15:11:07;;;;;;;3.53;2.10;;;7.30;66.60;;;;;;6246899;23;20760;-87
2022/01/14 15:13:34;;;;;;;6.03;2.67;;;7.30;68.40;;;;;;6247387;22;20257;-85
2022/01/14 15:18:32;;;;;;;4.05;2.55;;;7.10;70.30;;;;;;6218496;23;20248;-84
2022/01/14 15:21:00;;;;;;;5.22;2.72;;;7.00;71.80;;;;;;6221670;23;20253;-85
2022/01/14 15:23:27;;;;;;;4.03;2.70;;;6.90;71.80;;;;;;6220378;23;20249;-88
2022/01/14 15:25:54;;;;;;;6.43;3.22;;;6.80;71.70;;;;;;6218666;23;20568;-85
2022/01/14 15:28:21;;;;;;;5.57;3.80;;;6.80;74.40;;;;;;6215221;23;20216;-86
2022/01/14 15:30:48;;;;;;;6.45;3.20;;;6.70;75.00;;;;;;6214801;23;20174;-84
2022/01/14 15:33:15;;;;;;;3.47;2.58;;;6.60;75.80;;;;;;6214630;23;21088;-86
2022/01/14 15:35:43;;;;;;;3.25;2.65;;;6.50;76.70;;;;;;6244386;23;20166;-87
2022/01/14 15:38:14;;;;;;;4.00;2.50;;;6.40;77.80;;;;;;6244124;23;20197;-86
2022/01/14 15:40:42;;;;;;;4.72;2.53;;;6.30;78.40;;;;;;6249235;23;20228;-84
2022/01/14 15:43:09;;;;;;;3.87;2.50;;;6.20;79.10;;;;;;6249612;23;20208;-87
2022/01/14 15:45:38;;;;;;;5.03;2.72;;;6.10;80.00;;;;;;6251064;23;20669;-87
2022/01/14 15:48:07;;;;;;;3.10;2.40;;;6.10;81.20;;;;;;6251103;23;20201;-89
2022/01/14 15:50:34;;;;;;;4.60;2.30;;;6.00;81.30;;;;;;6250580;23;20193;-86